Terminal Aerodrome Forecast
Issued by NWS

Home | Current Version | Previous Version | Text Only | Print | Product List | Glossary On
Versions: 1 2 3 4 5 6 7 8 9 10 11 12 13 14 15 16 17
000
FTUS43 KLSX 201721
TAFCPS
TAF
KCPS 201721Z 2018/2118 21009KT P6SM FEW150
     FM202000 25007KT P6SM FEW250
     FM210000 32005KT P6SM FEW050
     FM210200 01009KT P6SM FEW050
     FM211500 05010KT P6SM SCT150=

USA.gov is the U.S. government's official web portal to all federal, state and local government web resources and services.